Belle Chasse — WDG2912 — position and weather

sailwx.info

Track history (hours):
 
Tides and Currents Weather Stations Pressure Air Temp Water Temp Dewpoint Dewpoint Depression Visibility Wind Speed Wind Dir Waves Ship Positions

Belle Chasse

Owner: Higman Barge Lines, Inc, Orange, TX. More information available from US FCC via Universal Licensing System and Coast Guard Vessel Documentation Center.

Last reported at 2017-Mar-20 08:28 UTC. Time now 2017-Mar-24 21:57 UTC.
Position N 29°48' W 094°00'.

Length 26 m; draft 3 m.

Type: Towing. MMSI: 367520550.

Date/timePositionNaut miles runAvg speedWind from/ knotsBaromVisibWave heightAir tempDewpointWater temp
2017-Mar-20 08:28N 29°48' W 094°00'3 3.1
2017-Mar-20 07:32N 29°50' W 093°58'  
2017-Mar-12 05:33N 30°04' W 093°40'5 5.3
2017-Mar-12 04:33N 30°04' W 093°34'5 5.1
2017-Mar-12 03:33N 30°04' W 093°28'5 4.8
2017-Mar-12 02:33N 30°04' W 093°23'4 3.7
2017-Mar-12 01:33N 30°06' W 093°19'3 2.6
2017-Mar-12 00:33N 30°04' W 093°16'4 4.4
2017-Mar-11 23:33N 30°01' W 093°14'5 4.7
2017-Mar-11 22:33N 29°57' W 093°10'5 4.5
2017-Mar-11 21:33N 29°56' W 093°05'23 3.2
2017-Mar-11 14:21N 29°56' W 092°39'2 2.3
2017-Mar-11 13:31N 29°55' W 092°37'0 0.1
2017-Mar-11 10:17N 29°55' W 092°36'0 0.0
2017-Mar-11 09:32N 29°55' W 092°36'0 0.0
2017-Mar-11 08:32N 29°55' W 092°36'2 2.2
2017-Mar-11 07:33N 29°55' W 092°34'4 4.1
2017-Mar-11 06:33N 29°54' W 092°29'4 4.0
2017-Mar-11 05:33N 29°53' W 092°25'3 3.3
2017-Mar-11 04:33N 29°51' W 092°22'4 3.9
2017-Mar-11 03:34N 29°50' W 092°18'3 3.5
2017-Mar-11 02:34N 29°48' W 092°14'3 2.7
2017-Mar-11 01:33N 29°47' W 092°11'0 0.3
2017-Mar-11 00:33N 29°47' W 092°11'0 0.2
2017-Mar-10 23:33N 29°47' W 092°11'4 4.2
2017-Mar-10 22:33N 29°48' W 092°06'5 4.6
2017-Mar-10 21:33N 29°49' W 092°01'4 4.4
2017-Mar-10 20:33N 29°51' W 091°56'4 4.2
2017-Mar-10 19:32N 29°51' W 091°51'4 3.8
2017-Mar-10 18:31N 29°47' W 091°49'  
Track history (hours):
 
Tides and Currents Weather Stations Pressure Air Temp Water Temp Dewpoint Dewpoint Depression Visibility Wind Speed Wind Dir Waves Ship Positions

Belle Chasse

Owner: Higman Barge Lines, Inc, Orange, TX. More information available from US FCC via Universal Licensing System and Coast Guard Vessel Documentation Center.

Last reported at 2017-Mar-20 08:28 UTC. Time now 2017-Mar-24 21:57 UTC.
Position N 29°48' W 094°00'.

Length 26 m; draft 3 m.

Type: Towing. MMSI: 367520550.

Date/timePositionNaut miles runAvg speedWind from/ knotsBaromVisibWave heightAir tempDewpointWater temp
2017-Mar-20 08:28N 29°48' W 094°00'3 3.1
2017-Mar-20 07:32N 29°50' W 093°58'  
2017-Mar-12 05:33N 30°04' W 093°40'5 5.3
2017-Mar-12 04:33N 30°04' W 093°34'5 5.1
2017-Mar-12 03:33N 30°04' W 093°28'5 4.8
2017-Mar-12 02:33N 30°04' W 093°23'4 3.7
2017-Mar-12 01:33N 30°06' W 093°19'3 2.6
2017-Mar-12 00:33N 30°04' W 093°16'4 4.4
2017-Mar-11 23:33N 30°01' W 093°14'5 4.7
2017-Mar-11 22:33N 29°57' W 093°10'5 4.5
2017-Mar-11 21:33N 29°56' W 093°05'23 3.2
2017-Mar-11 14:21N 29°56' W 092°39'2 2.3
2017-Mar-11 13:31N 29°55' W 092°37'0 0.1
2017-Mar-11 10:17N 29°55' W 092°36'0 0.0
2017-Mar-11 09:32N 29°55' W 092°36'0 0.0
2017-Mar-11 08:32N 29°55' W 092°36'2 2.2
2017-Mar-11 07:33N 29°55' W 092°34'4 4.1
2017-Mar-11 06:33N 29°54' W 092°29'4 4.0
2017-Mar-11 05:33N 29°53' W 092°25'3 3.3
2017-Mar-11 04:33N 29°51' W 092°22'4 3.9
2017-Mar-11 03:34N 29°50' W 092°18'3 3.5
2017-Mar-11 02:34N 29°48' W 092°14'3 2.7
2017-Mar-11 01:33N 29°47' W 092°11'0 0.3
2017-Mar-11 00:33N 29°47' W 092°11'0 0.2
2017-Mar-10 23:33N 29°47' W 092°11'4 4.2
2017-Mar-10 22:33N 29°48' W 092°06'5 4.6
2017-Mar-10 21:33N 29°49' W 092°01'4 4.4
2017-Mar-10 20:33N 29°51' W 091°56'4 4.2
2017-Mar-10 19:32N 29°51' W 091°51'4 3.8
2017-Mar-10 18:31N 29°47' W 091°49'  

Dump ship's entire track history